Airfield :
LOGIN :

Register | Disclaimer

   EN    FR    IT 

 










Legend :    VFR   Marginal VFR   IFR   Intensive IFR   Very Intensive IFR
Visi :
Ceiling :
>= 8 km
>= 3000ft
5 to 8 km
1000 to 3000 ft
1500m to 5 km
500 to 1000 ft
800 to 1500m
200 to 500 ft
< 800m
< 200 ft
Symbols :   Thunderstorms  Fog  Heavy snow  Heavy precipitations  Wind > 20 kt
SIGMETs :     Misc.  Thunderstorms  Icing  Turbulence  Mountain Waves  Volcanic Ashes






- Airport Elevation : 306 ft
- IATA code : EMA


EGNX - Nottingham East Midlands

CURRENT METAR :
  • 170650Z 29004KT 3000 BR BKN013 06/06 Q1009

EXPIRED METARs :
  • 170620Z 28003KT 3500 BR SCT009 BKN038 06/06 Q1009
  • 170550Z 27005KT 2400 BR SCT009 BKN049 06/06 Q1008
  • 170520Z 28003KT 2500 BR FEW014 BKN025 BKN048 06/06 Q1008
  • 170450Z AUTO 27004KT 2500 BR BKN002/// BKN026/// OVC049/// 06/06 Q1008
  • 170420Z AUTO 24004KT 2600 BR FEW002/// SCT013/// BKN023/// 06/06 Q1008

TAF TAF EGNX
Valid from the 17 at 06:00 until the 18 at 06:00 UTC


170506Z 1706/1806 27006KT 2000 BR FEW010 SCT030
BECMG 1706/1709 9999 NSW
TEMPO 1706/1709 BKN010
PROB30
TEMPO 1706/1709 DZ BKN004
TEMPO 1709/1722 6000 -RA FEW004 BKN010
PROB30 1709/1712 2000 DZ BR BKN004
BECMG 1710/1713 36010KT
PROB30 1717/1723 2000 BR BKN004
ATIS : +44 1332 852 852 (ext 3201)



MET'MAP, your aeronautical weather chart ! - Copyright ORBIFLY December 2007 - Disclaimer

ORBIFLY MET'MAP TEAM :

Programming & Development : Alexandra Zaïnal
Concept & Development : Baudouin d'Aumeries
Co-Development & Prog : Marc-Olivier Méhu
Technical & hardware support : Manuel Goepfert

Contact : metmap@orbifly.com




SOURCES & CREDITS :

   NOAA